sensor_id;sensor_type;location;lat;lon;timestamp;P1;durP1;ratioP1;P2;durP2;ratioP2
52934;SDS011;38802;50.198;19.796;2023-04-25T00:02:16;1.90;;;1.80;;
52934;SDS011;38802;50.198;19.796;2023-04-25T00:04:43;1.80;;;1.50;;
52934;SDS011;38802;50.198;19.796;2023-04-25T00:07:10;3.10;;;1.50;;
52934;SDS011;38802;50.198;19.796;2023-04-25T00:09:37;2.10;;;1.80;;
52934;SDS011;38802;50.198;19.796;2023-04-25T00:12:04;1.60;;;1.50;;
52934;SDS011;38802;50.198;19.796;2023-04-25T00:14:30;1.60;;;1.40;;
52934;SDS011;38802;50.198;19.796;2023-04-25T00:17:00;1.80;;;1.50;;
52934;SDS011;38802;50.198;19.796;2023-04-25T00:19:26;1.30;;;1.10;;
52934;SDS011;38802;50.198;19.796;2023-04-25T00:21:55;1.60;;;1.50;;
52934;SDS011;38802;50.198;19.796;2023-04-25T00:24:21;5.10;;;1.90;;
52934;SDS011;38802;50.198;19.796;2023-04-25T00:26:48;1.60;;;1.30;;
52934;SDS011;38802;50.198;19.796;2023-04-25T00:29:15;1.90;;;1.70;;
52934;SDS011;38802;50.198;19.796;2023-04-25T00:31:41;2.10;;;1.90;;
52934;SDS011;38802;50.198;19.796;2023-04-25T00:34:08;2.90;;;1.70;;
52934;SDS011;38802;50.198;19.796;2023-04-25T00:36:35;6.50;;;1.90;;
52934;SDS011;38802;50.198;19.796;2023-04-25T00:39:02;2.80;;;1.90;;
52934;SDS011;38802;50.198;19.796;2023-04-25T00:41:30;3.40;;;2.20;;
52934;SDS011;38802;50.198;19.796;2023-04-25T00:43:57;2.80;;;2.10;;
52934;SDS011;38802;50.198;19.796;2023-04-25T00:46:25;1.60;;;1.40;;
52934;SDS011;38802;50.198;19.796;2023-04-25T00:48:52;4.30;;;2.10;;
52934;SDS011;38802;50.198;19.796;2023-04-25T00:51:19;2.60;;;2.40;;
52934;SDS011;38802;50.198;19.796;2023-04-25T00:53:48;2.60;;;2.40;;
52934;SDS011;38802;50.198;19.796;2023-04-25T00:56:16;2.20;;;2.00;;
52934;SDS011;38802;50.198;19.796;2023-04-25T00:58:43;2.90;;;2.70;;
52934;SDS011;38802;50.198;19.796;2023-04-25T01:01:10;3.30;;;3.00;;
52934;SDS011;38802;50.198;19.796;2023-04-25T01:03:37;3.30;;;2.40;;
52934;SDS011;38802;50.198;19.796;2023-04-25T01:06:09;3.10;;;2.90;;
52934;SDS011;38802;50.198;19.796;2023-04-25T01:08:39;3.00;;;2.80;;
52934;SDS011;38802;50.198;19.796;2023-04-25T01:11:06;2.90;;;2.70;;
52934;SDS011;38802;50.198;19.796;2023-04-25T01:13:33;3.20;;;3.00;;
52934;SDS011;38802;50.198;19.796;2023-04-25T01:16:00;3.90;;;3.00;;
52934;SDS011;38802;50.198;19.796;2023-04-25T01:18:28;3.00;;;2.70;;
52934;SDS011;38802;50.198;19.796;2023-04-25T01:20:55;3.90;;;3.60;;
52934;SDS011;38802;50.198;19.796;2023-04-25T01:23:22;4.60;;;3.40;;
52934;SDS011;38802;50.198;19.796;2023-04-25T01:25:50;3.60;;;2.90;;
52934;SDS011;38802;50.198;19.796;2023-04-25T01:28:17;3.70;;;3.30;;
52934;SDS011;38802;50.198;19.796;2023-04-25T01:30:44;4.30;;;3.90;;
52934;SDS011;38802;50.198;19.796;2023-04-25T01:33:12;3.00;;;2.70;;
52934;SDS011;38802;50.198;19.796;2023-04-25T01:35:40;4.20;;;3.40;;
52934;SDS011;38802;50.198;19.796;2023-04-25T01:38:07;3.40;;;3.10;;
52934;SDS011;38802;50.198;19.796;2023-04-25T01:40:34;3.80;;;3.50;;
52934;SDS011;38802;50.198;19.796;2023-04-25T01:43:05;3.10;;;2.80;;
52934;SDS011;38802;50.198;19.796;2023-04-25T01:45:34;3.40;;;3.10;;
52934;SDS011;38802;50.198;19.796;2023-04-25T01:48:02;8.10;;;3.40;;
52934;SDS011;38802;50.198;19.796;2023-04-25T01:50:29;4.30;;;3.50;;
52934;SDS011;38802;50.198;19.796;2023-04-25T01:52:56;4.80;;;3.30;;
52934;SDS011;38802;50.198;19.796;2023-04-25T01:55:23;4.60;;;4.20;;
52934;SDS011;38802;50.198;19.796;2023-04-25T02:00:45;6.10;;;5.30;;
52934;SDS011;38802;50.198;19.796;2023-04-25T02:03:12;4.20;;;3.90;;
52934;SDS011;38802;50.198;19.796;2023-04-25T02:05:39;4.50;;;4.10;;
52934;SDS011;38802;50.198;19.796;2023-04-25T02:08:08;4.40;;;4.00;;
52934;SDS011;38802;50.198;19.796;2023-04-25T02:10:35;5.50;;;4.60;;
52934;SDS011;38802;50.198;19.796;2023-04-25T02:13:09;4.90;;;4.60;;
52934;SDS011;38802;50.198;19.796;2023-04-25T02:15:43;3.60;;;3.30;;
52934;SDS011;38802;50.198;19.796;2023-04-25T02:18:14;5.40;;;4.80;;
52934;SDS011;38802;50.198;19.796;2023-04-25T02:20:43;4.50;;;4.10;;
52934;SDS011;38802;50.198;19.796;2023-04-25T02:23:10;5.40;;;5.00;;
52934;SDS011;38802;50.198;19.796;2023-04-25T02:25:37;5.30;;;4.90;;
52934;SDS011;38802;50.198;19.796;2023-04-25T02:28:04;4.80;;;4.40;;
52934;SDS011;38802;50.198;19.796;2023-04-25T02:30:30;5.50;;;5.10;;
52934;SDS011;38802;50.198;19.796;2023-04-25T02:32:57;6.10;;;5.60;;
52934;SDS011;38802;50.198;19.796;2023-04-25T02:35:24;5.30;;;4.80;;
52934;SDS011;38802;50.198;19.796;2023-04-25T02:37:53;5.70;;;5.20;;
52934;SDS011;38802;50.198;19.796;2023-04-25T02:40:20;4.50;;;4.10;;
52934;SDS011;38802;50.198;19.796;2023-04-25T02:42:46;5.10;;;4.60;;
52934;SDS011;38802;50.198;19.796;2023-04-25T02:45:13;4.30;;;4.00;;
52934;SDS011;38802;50.198;19.796;2023-04-25T02:47:40;4.20;;;3.90;;
52934;SDS011;38802;50.198;19.796;2023-04-25T02:50:07;4.50;;;4.10;;
52934;SDS011;38802;50.198;19.796;2023-04-25T02:52:34;4.70;;;4.30;;
52934;SDS011;38802;50.198;19.796;2023-04-25T02:55:12;4.40;;;4.00;;
52934;SDS011;38802;50.198;19.796;2023-04-25T02:57:41;4.10;;;3.80;;
52934;SDS011;38802;50.198;19.796;2023-04-25T03:00:09;5.80;;;3.90;;
52934;SDS011;38802;50.198;19.796;2023-04-25T03:02:38;4.30;;;4.00;;
52934;SDS011;38802;50.198;19.796;2023-04-25T03:05:05;3.80;;;3.40;;
52934;SDS011;38802;50.198;19.796;2023-04-25T03:07:32;4.60;;;4.30;;
52934;SDS011;38802;50.198;19.796;2023-04-25T03:09:59;4.70;;;4.40;;
52934;SDS011;38802;50.198;19.796;2023-04-25T03:12:26;4.60;;;4.30;;
52934;SDS011;38802;50.198;19.796;2023-04-25T03:14:53;6.00;;;5.40;;
52934;SDS011;38802;50.198;19.796;2023-04-25T03:17:20;5.40;;;4.90;;
52934;SDS011;38802;50.198;19.796;2023-04-25T03:19:49;4.50;;;4.20;;
52934;SDS011;38802;50.198;19.796;2023-04-25T03:22:15;5.50;;;5.10;;
52934;SDS011;38802;50.198;19.796;2023-04-25T03:24:42;6.50;;;6.00;;
52934;SDS011;38802;50.198;19.796;2023-04-25T03:27:08;6.80;;;5.70;;
52934;SDS011;38802;50.198;19.796;2023-04-25T03:29:35;5.50;;;5.10;;
52934;SDS011;38802;50.198;19.796;2023-04-25T03:32:03;8.30;;;6.90;;
52934;SDS011;38802;50.198;19.796;2023-04-25T03:34:30;7.60;;;6.90;;
52934;SDS011;38802;50.198;19.796;2023-04-25T03:36:56;6.60;;;6.10;;
52934;SDS011;38802;50.198;19.796;2023-04-25T03:39:23;7.50;;;6.90;;
52934;SDS011;38802;50.198;19.796;2023-04-25T03:41:50;8.10;;;7.40;;
52934;SDS011;38802;50.198;19.796;2023-04-25T03:44:18;7.30;;;6.30;;
52934;SDS011;38802;50.198;19.796;2023-04-25T03:46:45;8.00;;;7.30;;
52934;SDS011;38802;50.198;19.796;2023-04-25T03:55:12;8.80;;;7.50;;
52934;SDS011;38802;50.198;19.796;2023-04-25T03:57:39;8.60;;;7.90;;
52934;SDS011;38802;50.198;19.796;2023-04-25T04:00:06;10.40;;;9.50;;
52934;SDS011;38802;50.198;19.796;2023-04-25T04:02:39;9.80;;;8.90;;
52934;SDS011;38802;50.198;19.796;2023-04-25T04:05:11;9.70;;;8.90;;
52934;SDS011;38802;50.198;19.796;2023-04-25T04:07:44;9.50;;;8.70;;
52934;SDS011;38802;50.198;19.796;2023-04-25T04:10:11;9.10;;;8.40;;
52934;SDS011;38802;50.198;19.796;2023-04-25T04:12:40;9.10;;;8.40;;
52934;SDS011;38802;50.198;19.796;2023-04-25T04:15:07;8.00;;;7.20;;
52934;SDS011;38802;50.198;19.796;2023-04-25T04:17:35;7.80;;;7.10;;
52934;SDS011;38802;50.198;19.796;2023-04-25T04:20:02;9.00;;;8.30;;
52934;SDS011;38802;50.198;19.796;2023-04-25T04:22:31;8.40;;;7.70;;
52934;SDS011;38802;50.198;19.796;2023-04-25T04:25:03;9.70;;;8.40;;
52934;SDS011;38802;50.198;19.796;2023-04-25T04:27:52;8.50;;;7.80;;
52934;SDS011;38802;50.198;19.796;2023-04-25T04:30:35;8.20;;;7.20;;
52934;SDS011;38802;50.198;19.796;2023-04-25T04:33:06;9.10;;;8.30;;
52934;SDS011;38802;50.198;19.796;2023-04-25T04:35:33;8.60;;;7.90;;
52934;SDS011;38802;50.198;19.796;2023-04-25T04:38:00;8.90;;;8.10;;
52934;SDS011;38802;50.198;19.796;2023-04-25T04:40:31;9.50;;;8.50;;
52934;SDS011;38802;50.198;19.796;2023-04-25T04:43:07;9.40;;;8.70;;
52934;SDS011;38802;50.198;19.796;2023-04-25T04:45:56;6.50;;;6.00;;
52934;SDS011;38802;50.198;19.796;2023-04-25T04:48:29;6.80;;;6.20;;
52934;SDS011;38802;50.198;19.796;2023-04-25T04:51:35;6.20;;;5.60;;
52934;SDS011;38802;50.198;19.796;2023-04-25T04:54:15;6.30;;;5.80;;
52934;SDS011;38802;50.198;19.796;2023-04-25T04:56:59;6.30;;;5.20;;
52934;SDS011;38802;50.198;19.796;2023-04-25T04:59:35;5.80;;;5.40;;
52934;SDS011;38802;50.198;19.796;2023-04-25T05:02:13;4.60;;;4.30;;
52934;SDS011;38802;50.198;19.796;2023-04-25T05:04:50;4.70;;;4.40;;
52934;SDS011;38802;50.198;19.796;2023-04-25T05:07:47;4.70;;;4.30;;
52934;SDS011;38802;50.198;19.796;2023-04-25T05:10:44;4.90;;;4.50;;
52934;SDS011;38802;50.198;19.796;2023-04-25T05:13:19;4.00;;;3.70;;
52934;SDS011;38802;50.198;19.796;2023-04-25T05:16:04;4.60;;;4.20;;
52934;SDS011;38802;50.198;19.796;2023-04-25T05:18:48;4.40;;;4.10;;
52934;SDS011;38802;50.198;19.796;2023-04-25T05:21:43;5.40;;;4.30;;
52934;SDS011;38802;50.198;19.796;2023-04-25T05:24:24;5.20;;;4.70;;
52934;SDS011;38802;50.198;19.796;2023-04-25T05:27:09;4.70;;;4.40;;
52934;SDS011;38802;50.198;19.796;2023-04-25T05:29:48;4.70;;;4.30;;
52934;SDS011;38802;50.198;19.796;2023-04-25T05:32:47;4.70;;;4.20;;
52934;SDS011;38802;50.198;19.796;2023-04-25T05:35:14;3.90;;;3.60;;
52934;SDS011;38802;50.198;19.796;2023-04-25T05:37:46;4.40;;;4.00;;
52934;SDS011;38802;50.198;19.796;2023-04-25T05:40:14;3.80;;;3.50;;
52934;SDS011;38802;50.198;19.796;2023-04-25T05:42:44;3.70;;;2.80;;
52934;SDS011;38802;50.198;19.796;2023-04-25T05:45:40;7.30;;;3.10;;
52934;SDS011;38802;50.198;19.796;2023-04-25T05:48:21;3.10;;;2.80;;
52934;SDS011;38802;50.198;19.796;2023-04-25T05:50:57;3.70;;;3.40;;
52934;SDS011;38802;50.198;19.796;2023-04-25T05:53:42;3.50;;;3.20;;
52934;SDS011;38802;50.198;19.796;2023-04-25T05:56:09;3.90;;;3.10;;
52934;SDS011;38802;50.198;19.796;2023-04-25T05:58:36;3.60;;;3.30;;
52934;SDS011;38802;50.198;19.796;2023-04-25T06:01:02;4.50;;;4.10;;
52934;SDS011;38802;50.198;19.796;2023-04-25T06:03:29;4.30;;;3.90;;
52934;SDS011;38802;50.198;19.796;2023-04-25T06:05:57;3.20;;;2.90;;
52934;SDS011;38802;50.198;19.796;2023-04-25T06:08:25;5.30;;;4.30;;
52934;SDS011;38802;50.198;19.796;2023-04-25T06:10:52;7.60;;;4.30;;
52934;SDS011;38802;50.198;19.796;2023-04-25T06:13:18;4.60;;;4.30;;
52934;SDS011;38802;50.198;19.796;2023-04-25T06:15:46;4.70;;;4.20;;
52934;SDS011;38802;50.198;19.796;2023-04-25T06:18:12;6.90;;;4.80;;
52934;SDS011;38802;50.198;19.796;2023-04-25T06:20:39;5.70;;;5.20;;
52934;SDS011;38802;50.198;19.796;2023-04-25T06:23:06;5.40;;;4.50;;
52934;SDS011;38802;50.198;19.796;2023-04-25T06:25:42;4.20;;;3.90;;
52934;SDS011;38802;50.198;19.796;2023-04-25T06:28:08;4.30;;;3.70;;
52934;SDS011;38802;50.198;19.796;2023-04-25T06:30:36;4.90;;;4.40;;
52934;SDS011;38802;50.198;19.796;2023-04-25T06:33:06;4.10;;;3.80;;
52934;SDS011;38802;50.198;19.796;2023-04-25T06:35:35;6.50;;;4.00;;
52934;SDS011;38802;50.198;19.796;2023-04-25T06:38:02;5.50;;;5.10;;
52934;SDS011;38802;50.198;19.796;2023-04-25T06:40:29;5.70;;;5.10;;
52934;SDS011;38802;50.198;19.796;2023-04-25T06:42:56;6.60;;;5.40;;
52934;SDS011;38802;50.198;19.796;2023-04-25T06:45:38;6.00;;;5.20;;
52934;SDS011;38802;50.198;19.796;2023-04-25T06:48:06;8.70;;;5.10;;
52934;SDS011;38802;50.198;19.796;2023-04-25T06:50:33;4.90;;;4.50;;
52934;SDS011;38802;50.198;19.796;2023-04-25T06:53:01;5.00;;;4.60;;
52934;SDS011;38802;50.198;19.796;2023-04-25T06:55:28;6.90;;;5.50;;
52934;SDS011;38802;50.198;19.796;2023-04-25T06:58:04;6.70;;;5.40;;
52934;SDS011;38802;50.198;19.796;2023-04-25T07:00:48;6.70;;;5.90;;
52934;SDS011;38802;50.198;19.796;2023-04-25T07:03:16;8.10;;;5.00;;
52934;SDS011;38802;50.198;19.796;2023-04-25T07:05:43;4.50;;;4.20;;
52934;SDS011;38802;50.198;19.796;2023-04-25T07:08:12;4.90;;;4.40;;
52934;SDS011;38802;50.198;19.796;2023-04-25T07:10:38;7.90;;;4.30;;
52934;SDS011;38802;50.198;19.796;2023-04-25T07:13:05;4.60;;;4.20;;
52934;SDS011;38802;50.198;19.796;2023-04-25T07:15:32;6.00;;;4.00;;
52934;SDS011;38802;50.198;19.796;2023-04-25T07:18:00;4.10;;;3.60;;
52934;SDS011;38802;50.198;19.796;2023-04-25T07:20:26;4.80;;;4.40;;
52934;SDS011;38802;50.198;19.796;2023-04-25T07:22:55;4.70;;;4.30;;
52934;SDS011;38802;50.198;19.796;2023-04-25T07:25:21;5.30;;;4.10;;
52934;SDS011;38802;50.198;19.796;2023-04-25T07:27:49;4.90;;;4.50;;
52934;SDS011;38802;50.198;19.796;2023-04-25T07:30:18;4.70;;;4.20;;
52934;SDS011;38802;50.198;19.796;2023-04-25T07:32:44;5.10;;;4.70;;
52934;SDS011;38802;50.198;19.796;2023-04-25T07:35:14;6.50;;;4.70;;
52934;SDS011;38802;50.198;19.796;2023-04-25T07:37:41;5.70;;;5.30;;
52934;SDS011;38802;50.198;19.796;2023-04-25T07:40:12;5.30;;;4.90;;
52934;SDS011;38802;50.198;19.796;2023-04-25T07:42:44;6.60;;;5.10;;
52934;SDS011;38802;50.198;19.796;2023-04-25T07:45:11;5.00;;;4.60;;
52934;SDS011;38802;50.198;19.796;2023-04-25T07:47:39;6.10;;;4.60;;
52934;SDS011;38802;50.198;19.796;2023-04-25T07:50:06;4.40;;;4.10;;
52934;SDS011;38802;50.198;19.796;2023-04-25T07:52:33;5.50;;;5.00;;
52934;SDS011;38802;50.198;19.796;2023-04-25T07:55:07;5.20;;;4.90;;
52934;SDS011;38802;50.198;19.796;2023-04-25T07:57:53;4.70;;;4.40;;
52934;SDS011;38802;50.198;19.796;2023-04-25T08:00:20;6.30;;;4.90;;
52934;SDS011;38802;50.198;19.796;2023-04-25T08:02:48;5.20;;;4.80;;
52934;SDS011;38802;50.198;19.796;2023-04-25T08:05:15;4.60;;;4.20;;
52934;SDS011;38802;50.198;19.796;2023-04-25T08:07:47;5.20;;;4.70;;
52934;SDS011;38802;50.198;19.796;2023-04-25T08:10:14;5.50;;;5.00;;
52934;SDS011;38802;50.198;19.796;2023-04-25T08:12:41;5.80;;;5.20;;
52934;SDS011;38802;50.198;19.796;2023-04-25T08:15:08;5.20;;;4.70;;
52934;SDS011;38802;50.198;19.796;2023-04-25T08:17:37;6.10;;;5.60;;
52934;SDS011;38802;50.198;19.796;2023-04-25T08:20:05;5.40;;;5.10;;
52934;SDS011;38802;50.198;19.796;2023-04-25T08:22:33;6.20;;;5.70;;
52934;SDS011;38802;50.198;19.796;2023-04-25T08:25:15;7.90;;;5.40;;
52934;SDS011;38802;50.198;19.796;2023-04-25T08:27:42;5.30;;;4.90;;
52934;SDS011;38802;50.198;19.796;2023-04-25T08:30:11;5.30;;;4.90;;
52934;SDS011;38802;50.198;19.796;2023-04-25T08:32:39;8.10;;;5.40;;
52934;SDS011;38802;50.198;19.796;2023-04-25T08:35:17;4.90;;;4.50;;
52934;SDS011;38802;50.198;19.796;2023-04-25T08:37:44;8.30;;;5.70;;
52934;SDS011;38802;50.198;19.796;2023-04-25T08:40:14;4.60;;;4.20;;
52934;SDS011;38802;50.198;19.796;2023-04-25T08:42:56;5.60;;;4.50;;
52934;SDS011;38802;50.198;19.796;2023-04-25T08:45:27;5.20;;;4.70;;
52934;SDS011;38802;50.198;19.796;2023-04-25T08:47:56;4.50;;;4.10;;
52934;SDS011;38802;50.198;19.796;2023-04-25T08:50:23;5.20;;;4.80;;
52934;SDS011;38802;50.198;19.796;2023-04-25T08:52:53;4.40;;;4.10;;
52934;SDS011;38802;50.198;19.796;2023-04-25T08:55:21;6.30;;;4.80;;
52934;SDS011;38802;50.198;19.796;2023-04-25T08:57:52;4.70;;;4.40;;
52934;SDS011;38802;50.198;19.796;2023-04-25T09:00:21;5.90;;;4.90;;
52934;SDS011;38802;50.198;19.796;2023-04-25T09:02:49;4.80;;;4.30;;
52934;SDS011;38802;50.198;19.796;2023-04-25T09:05:16;4.20;;;3.80;;
52934;SDS011;38802;50.198;19.796;2023-04-25T09:07:48;3.90;;;3.60;;
52934;SDS011;38802;50.198;19.796;2023-04-25T09:10:17;5.30;;;4.80;;
52934;SDS011;38802;50.198;19.796;2023-04-25T09:12:43;4.20;;;3.70;;
52934;SDS011;38802;50.198;19.796;2023-04-25T09:15:11;3.90;;;3.60;;
52934;SDS011;38802;50.198;19.796;2023-04-25T09:18:10;4.70;;;4.30;;
52934;SDS011;38802;50.198;19.796;2023-04-25T09:20:41;4.00;;;3.70;;
52934;SDS011;38802;50.198;19.796;2023-04-25T09:25:54;3.70;;;3.40;;
52934;SDS011;38802;50.198;19.796;2023-04-25T09:28:24;3.30;;;3.00;;
52934;SDS011;38802;50.198;19.796;2023-04-25T09:30:58;3.40;;;3.20;;
52934;SDS011;38802;50.198;19.796;2023-04-25T09:33:42;3.20;;;2.90;;
52934;SDS011;38802;50.198;19.796;2023-04-25T09:36:09;2.60;;;2.40;;
52934;SDS011;38802;50.198;19.796;2023-04-25T09:38:55;3.00;;;2.80;;
52934;SDS011;38802;50.198;19.796;2023-04-25T09:41:28;4.80;;;3.00;;
52934;SDS011;38802;50.198;19.796;2023-04-25T09:43:58;3.30;;;3.00;;
52934;SDS011;38802;50.198;19.796;2023-04-25T09:46:33;3.20;;;3.00;;
52934;SDS011;38802;50.198;19.796;2023-04-25T09:49:06;3.80;;;3.50;;
52934;SDS011;38802;50.198;19.796;2023-04-25T09:51:53;3.90;;;3.60;;
52934;SDS011;38802;50.198;19.796;2023-04-25T09:54:22;4.80;;;4.00;;
52934;SDS011;38802;50.198;19.796;2023-04-25T09:56:56;4.70;;;3.90;;
52934;SDS011;38802;50.198;19.796;2023-04-25T09:59:27;7.20;;;3.50;;
52934;SDS011;38802;50.198;19.796;2023-04-25T10:01:58;5.20;;;4.80;;
52934;SDS011;38802;50.198;19.796;2023-04-25T10:04:28;5.10;;;4.70;;
52934;SDS011;38802;50.198;19.796;2023-04-25T10:07:09;4.70;;;4.30;;
52934;SDS011;38802;50.198;19.796;2023-04-25T10:09:38;5.00;;;4.50;;
52934;SDS011;38802;50.198;19.796;2023-04-25T10:12:08;6.00;;;5.10;;
52934;SDS011;38802;50.198;19.796;2023-04-25T10:14:35;5.30;;;4.20;;
52934;SDS011;38802;50.198;19.796;2023-04-25T10:17:02;4.80;;;4.30;;
52934;SDS011;38802;50.198;19.796;2023-04-25T10:19:29;5.00;;;4.60;;
52934;SDS011;38802;50.198;19.796;2023-04-25T10:22:03;5.10;;;4.40;;
52934;SDS011;38802;50.198;19.796;2023-04-25T10:24:52;5.30;;;4.90;;
52934;SDS011;38802;50.198;19.796;2023-04-25T10:27:19;4.80;;;4.50;;
52934;SDS011;38802;50.198;19.796;2023-04-25T10:29:46;4.80;;;4.20;;
52934;SDS011;38802;50.198;19.796;2023-04-25T10:32:29;4.60;;;4.30;;
52934;SDS011;38802;50.198;19.796;2023-04-25T10:34:57;4.90;;;4.50;;
52934;SDS011;38802;50.198;19.796;2023-04-25T10:37:24;3.80;;;3.50;;
52934;SDS011;38802;50.198;19.796;2023-04-25T10:39:51;4.50;;;4.10;;
52934;SDS011;38802;50.198;19.796;2023-04-25T10:42:19;4.50;;;3.60;;
52934;SDS011;38802;50.198;19.796;2023-04-25T10:45:00;4.30;;;4.00;;
52934;SDS011;38802;50.198;19.796;2023-04-25T10:47:44;5.80;;;4.80;;
52934;SDS011;38802;50.198;19.796;2023-04-25T10:50:11;4.60;;;4.10;;
52934;SDS011;38802;50.198;19.796;2023-04-25T10:52:42;5.30;;;4.80;;
52934;SDS011;38802;50.198;19.796;2023-04-25T10:55:10;8.40;;;4.30;;
52934;SDS011;38802;50.198;19.796;2023-04-25T10:57:41;3.90;;;3.60;;
52934;SDS011;38802;50.198;19.796;2023-04-25T11:00:13;5.20;;;4.60;;
52934;SDS011;38802;50.198;19.796;2023-04-25T11:02:47;3.90;;;3.60;;
52934;SDS011;38802;50.198;19.796;2023-04-25T11:05:20;8.50;;;4.40;;
52934;SDS011;38802;50.198;19.796;2023-04-25T11:07:50;3.90;;;2.90;;
52934;SDS011;38802;50.198;19.796;2023-04-25T11:10:33;4.10;;;3.30;;
52934;SDS011;38802;50.198;19.796;2023-04-25T11:13:03;3.80;;;3.20;;
52934;SDS011;38802;50.198;19.796;2023-04-25T11:15:32;3.70;;;2.90;;
52934;SDS011;38802;50.198;19.796;2023-04-25T11:17:59;3.60;;;3.30;;
52934;SDS011;38802;50.198;19.796;2023-04-25T11:20:26;3.60;;;3.30;;
52934;SDS011;38802;50.198;19.796;2023-04-25T11:22:56;2.50;;;2.30;;
52934;SDS011;38802;50.198;19.796;2023-04-25T11:25:24;3.10;;;2.50;;
52934;SDS011;38802;50.198;19.796;2023-04-25T11:27:52;3.60;;;2.90;;
52934;SDS011;38802;50.198;19.796;2023-04-25T11:30:21;3.80;;;2.90;;
52934;SDS011;38802;50.198;19.796;2023-04-25T11:32:48;2.60;;;2.40;;
52934;SDS011;38802;50.198;19.796;2023-04-25T11:35:16;2.40;;;2.10;;
52934;SDS011;38802;50.198;19.796;2023-04-25T11:37:43;3.70;;;2.20;;
52934;SDS011;38802;50.198;19.796;2023-04-25T11:40:10;2.90;;;2.40;;
52934;SDS011;38802;50.198;19.796;2023-04-25T11:42:38;2.30;;;2.10;;
52934;SDS011;38802;50.198;19.796;2023-04-25T11:45:09;2.80;;;2.20;;
52934;SDS011;38802;50.198;19.796;2023-04-25T11:47:37;3.30;;;2.40;;
52934;SDS011;38802;50.198;19.796;2023-04-25T11:50:04;5.00;;;2.70;;
52934;SDS011;38802;50.198;19.796;2023-04-25T11:52:40;2.70;;;2.50;;
52934;SDS011;38802;50.198;19.796;2023-04-25T11:55:09;3.20;;;2.90;;
52934;SDS011;38802;50.198;19.796;2023-04-25T11:57:38;3.00;;;2.70;;
52934;SDS011;38802;50.198;19.796;2023-04-25T12:02:44;4.30;;;2.60;;
52934;SDS011;38802;50.198;19.796;2023-04-25T12:05:12;6.70;;;3.00;;
52934;SDS011;38802;50.198;19.796;2023-04-25T12:07:58;3.60;;;3.30;;
52934;SDS011;38802;50.198;19.796;2023-04-25T12:10:37;4.20;;;2.80;;
52934;SDS011;38802;50.198;19.796;2023-04-25T12:13:18;7.30;;;3.30;;
52934;SDS011;38802;50.198;19.796;2023-04-25T12:15:54;3.20;;;3.00;;
52934;SDS011;38802;50.198;19.796;2023-04-25T12:18:25;4.20;;;3.10;;
52934;SDS011;38802;50.198;19.796;2023-04-25T12:20:53;3.50;;;3.20;;
52934;SDS011;38802;50.198;19.796;2023-04-25T12:23:27;7.60;;;7.00;;
52934;SDS011;38802;50.198;19.796;2023-04-25T12:25:55;4.30;;;3.90;;
52934;SDS011;38802;50.198;19.796;2023-04-25T12:28:23;4.90;;;4.40;;
52934;SDS011;38802;50.198;19.796;2023-04-25T12:30:54;5.20;;;4.40;;
52934;SDS011;38802;50.198;19.796;2023-04-25T12:33:22;4.30;;;3.90;;
52934;SDS011;38802;50.198;19.796;2023-04-25T12:35:49;4.10;;;3.40;;
52934;SDS011;38802;50.198;19.796;2023-04-25T12:38:26;3.60;;;2.90;;
52934;SDS011;38802;50.198;19.796;2023-04-25T12:40:57;4.40;;;3.70;;
52934;SDS011;38802;50.198;19.796;2023-04-25T12:43:24;3.90;;;3.40;;
52934;SDS011;38802;50.198;19.796;2023-04-25T12:45:52;3.70;;;3.40;;
52934;SDS011;38802;50.198;19.796;2023-04-25T12:48:20;3.00;;;2.70;;
52934;SDS011;38802;50.198;19.796;2023-04-25T12:50:47;4.50;;;3.10;;
52934;SDS011;38802;50.198;19.796;2023-04-25T12:53:15;4.80;;;2.50;;
52934;SDS011;38802;50.198;19.796;2023-04-25T12:55:43;3.70;;;2.70;;
52934;SDS011;38802;50.198;19.796;2023-04-25T12:58:12;5.70;;;3.30;;
52934;SDS011;38802;50.198;19.796;2023-04-25T13:00:43;5.50;;;4.50;;
52934;SDS011;38802;50.198;19.796;2023-04-25T13:03:11;5.90;;;4.20;;
52934;SDS011;38802;50.198;19.796;2023-04-25T13:05:38;4.90;;;3.90;;
52934;SDS011;38802;50.198;19.796;2023-04-25T13:08:05;4.70;;;4.00;;
52934;SDS011;38802;50.198;19.796;2023-04-25T13:10:32;6.00;;;4.20;;
52934;SDS011;38802;50.198;19.796;2023-04-25T13:13:00;9.50;;;3.90;;
52934;SDS011;38802;50.198;19.796;2023-04-25T13:15:28;5.30;;;3.00;;
52934;SDS011;38802;50.198;19.796;2023-04-25T13:17:55;9.60;;;3.00;;
52934;SDS011;38802;50.198;19.796;2023-04-25T13:20:22;3.50;;;2.70;;
52934;SDS011;38802;50.198;19.796;2023-04-25T13:22:49;2.80;;;2.50;;
52934;SDS011;38802;50.198;19.796;2023-04-25T13:25:16;3.30;;;2.70;;
52934;SDS011;38802;50.198;19.796;2023-04-25T13:27:42;2.90;;;2.40;;
52934;SDS011;38802;50.198;19.796;2023-04-25T13:30:10;3.30;;;2.40;;
52934;SDS011;38802;50.198;19.796;2023-04-25T13:32:37;3.20;;;2.10;;
52934;SDS011;38802;50.198;19.796;2023-04-25T13:35:06;2.60;;;2.00;;
52934;SDS011;38802;50.198;19.796;2023-04-25T13:37:37;3.00;;;2.40;;
52934;SDS011;38802;50.198;19.796;2023-04-25T13:40:06;4.40;;;2.50;;
52934;SDS011;38802;50.198;19.796;2023-04-25T13:42:36;3.20;;;2.50;;
52934;SDS011;38802;50.198;19.796;2023-04-25T13:45:03;4.30;;;2.60;;
52934;SDS011;38802;50.198;19.796;2023-04-25T13:47:30;8.70;;;3.00;;
52934;SDS011;38802;50.198;19.796;2023-04-25T13:49:57;6.10;;;2.80;;
52934;SDS011;38802;50.198;19.796;2023-04-25T13:52:24;2.80;;;2.40;;
52934;SDS011;38802;50.198;19.796;2023-04-25T13:54:52;3.20;;;2.80;;
52934;SDS011;38802;50.198;19.796;2023-04-25T13:57:18;5.60;;;2.80;;
52934;SDS011;38802;50.198;19.796;2023-04-25T13:59:46;5.40;;;4.90;;
52934;SDS011;38802;50.198;19.796;2023-04-25T14:02:12;4.10;;;3.40;;
52934;SDS011;38802;50.198;19.796;2023-04-25T14:04:40;4.50;;;3.90;;
52934;SDS011;38802;50.198;19.796;2023-04-25T14:07:07;4.00;;;3.50;;
52934;SDS011;38802;50.198;19.796;2023-04-25T14:09:33;7.10;;;4.10;;
52934;SDS011;38802;50.198;19.796;2023-04-25T14:12:01;7.60;;;4.50;;
52934;SDS011;38802;50.198;19.796;2023-04-25T14:14:28;7.70;;;7.00;;
52934;SDS011;38802;50.198;19.796;2023-04-25T14:16:55;7.10;;;5.30;;
52934;SDS011;38802;50.198;19.796;2023-04-25T14:19:23;12.30;;;5.60;;
52934;SDS011;38802;50.198;19.796;2023-04-25T14:21:50;16.30;;;8.10;;
52934;SDS011;38802;50.198;19.796;2023-04-25T14:24:17;12.30;;;6.80;;
52934;SDS011;38802;50.198;19.796;2023-04-25T14:26:44;10.80;;;6.60;;
52934;SDS011;38802;50.198;19.796;2023-04-25T14:29:10;5.30;;;3.30;;
52934;SDS011;38802;50.198;19.796;2023-04-25T14:31:38;6.00;;;4.80;;
52934;SDS011;38802;50.198;19.796;2023-04-25T14:34:06;10.10;;;5.60;;
52934;SDS011;38802;50.198;19.796;2023-04-25T14:36:33;15.20;;;7.40;;
52934;SDS011;38802;50.198;19.796;2023-04-25T14:39:02;7.40;;;5.20;;
52934;SDS011;38802;50.198;19.796;2023-04-25T14:41:39;7.50;;;3.90;;
52934;SDS011;38802;50.198;19.796;2023-04-25T14:44:06;6.40;;;4.90;;
52934;SDS011;38802;50.198;19.796;2023-04-25T14:46:33;4.70;;;4.10;;
52934;SDS011;38802;50.198;19.796;2023-04-25T14:49:00;6.80;;;4.10;;
52934;SDS011;38802;50.198;19.796;2023-04-25T14:51:28;7.10;;;5.70;;
52934;SDS011;38802;50.198;19.796;2023-04-25T14:53:55;13.60;;;3.50;;
52934;SDS011;38802;50.198;19.796;2023-04-25T14:56:22;5.70;;;3.90;;
52934;SDS011;38802;50.198;19.796;2023-04-25T14:58:49;4.40;;;4.00;;
52934;SDS011;38802;50.198;19.796;2023-04-25T15:01:16;6.60;;;3.90;;
52934;SDS011;38802;50.198;19.796;2023-04-25T15:03:43;10.90;;;4.70;;
52934;SDS011;38802;50.198;19.796;2023-04-25T15:06:10;6.30;;;3.90;;